createdAt,value
2022-08-17T00:01:32.050Z,65.22
2022-08-17T00:04:19.409Z,65.46
2022-08-17T00:06:49.447Z,64.38
2022-08-17T00:09:18.904Z,63.99
2022-08-17T00:12:41.308Z,64.23
2022-08-17T00:14:35.244Z,64.88
2022-08-17T00:17:03.911Z,64.99
2022-08-17T00:19:32.464Z,64.69
2022-08-17T00:22:31.974Z,64.09
2022-08-17T00:24:47.330Z,63.73
2022-08-17T00:27:13.831Z,63.94
2022-08-17T00:29:40.593Z,64.06
2022-08-17T00:33:13.692Z,64.27
2022-08-17T00:34:53.842Z,64.56
2022-08-17T00:37:20.547Z,66.71
2022-08-17T00:39:47.243Z,67.85
2022-08-17T00:42:15.726Z,69.99
2022-08-17T00:44:42.301Z,69.53
2022-08-17T00:47:08.955Z,69.99
2022-08-17T00:49:35.502Z,70.79
2022-08-17T00:52:10.673Z,71.09
2022-08-17T00:54:42.317Z,69.29
2022-08-17T00:57:15.110Z,68.53
2022-08-17T00:59:47.160Z,71.19
2022-08-17T01:02:29.647Z,70.38
2022-08-17T01:05:01.088Z,69.25
2022-08-17T01:07:27.747Z,69.86
2022-08-17T01:09:54.812Z,70.08
2022-08-17T01:12:21.722Z,70.46
2022-08-17T01:14:48.582Z,70.38
2022-08-17T01:17:15.273Z,70.10
2022-08-17T01:19:42.718Z,71.44
2022-08-17T01:22:09.192Z,69.20
2022-08-17T01:24:38.904Z,71.38
2022-08-17T01:27:10.665Z,69.63
2022-08-17T01:29:41.183Z,69.77
2022-08-17T01:32:08.371Z,68.77
2022-08-17T01:34:42.416Z,70.09
2022-08-17T01:37:10.623Z,69.91
2022-08-17T01:39:49.175Z,69.48
2022-08-17T01:42:31.734Z,69.96
2022-08-17T01:45:04.395Z,69.76
2022-08-17T01:47:31.140Z,70.13
2022-08-17T01:49:57.926Z,69.40
2022-08-17T01:52:24.602Z,69.49
2022-08-17T01:54:51.380Z,69.20
2022-08-17T01:57:18.463Z,67.81
2022-08-17T01:59:44.993Z,70.41
2022-08-17T02:02:11.589Z,68.88
2022-08-17T02:04:56.837Z,70.11
2022-08-17T02:07:26.131Z,70.09
2022-08-17T02:09:53.646Z,68.55
2022-08-17T02:12:38.768Z,70.80
2022-08-17T02:15:07.641Z,71.49
2022-08-17T02:17:35.239Z,70.28
2022-08-17T02:20:01.845Z,70.58
2022-08-17T02:22:28.847Z,68.92
2022-08-17T02:25:01.114Z,68.73
2022-08-17T02:27:28.424Z,68.35
2022-08-17T02:29:54.927Z,69.24
2022-08-17T02:32:27.575Z,67.88
2022-08-17T02:34:56.514Z,69.78
2022-08-17T02:37:23.364Z,70.36
2022-08-17T02:39:50.002Z,69.43
2022-08-17T02:42:16.536Z,69.38
2022-08-17T02:44:43.554Z,69.43
2022-08-17T02:47:11.634Z,69.43
2022-08-17T02:49:38.338Z,70.18
2022-08-17T02:52:07.241Z,70.74
2022-08-17T02:54:40.354Z,71.66
2022-08-17T02:57:11.793Z,71.41
2022-08-17T02:59:39.806Z,70.42
2022-08-17T03:02:08.356Z,71.51
2022-08-17T03:04:35.645Z,72.27
2022-08-17T03:07:03.537Z,72.33
2022-08-17T03:09:30.049Z,70.04
2022-08-17T03:12:08.449Z,70.22
2022-08-17T03:14:41.316Z,69.96
2022-08-17T03:17:10.975Z,71.60
2022-08-17T03:19:43.483Z,72.25
2022-08-17T03:22:36.556Z,71.56
2022-08-17T03:24:57.706Z,72.30
2022-08-17T03:27:24.286Z,71.66
2022-08-17T03:29:50.939Z,72.37
2022-08-17T03:32:17.629Z,72.29
2022-08-17T03:34:44.220Z,70.45
2022-08-17T03:37:10.726Z,72.13
2022-08-17T03:39:37.565Z,71.34
2022-08-17T03:42:09.085Z,71.30
2022-08-17T03:44:57.888Z,70.37
2022-08-17T03:47:50.694Z,70.68
2022-08-17T03:50:37.401Z,70.38
2022-08-17T03:53:26.891Z,70.40
2022-08-17T03:56:11.953Z,69.02
2022-08-17T03:58:38.779Z,69.78
2022-08-17T04:01:06.861Z,70.92
2022-08-17T04:03:33.793Z,69.25
2022-08-17T04:06:02.183Z,70.56
2022-08-17T04:08:29.587Z,70.00
2022-08-17T04:10:57.426Z,70.62
2022-08-17T04:13:24.766Z,69.62
2022-08-17T04:15:52.733Z,69.21
2022-08-17T04:18:20.163Z,69.03
2022-08-17T04:20:47.163Z,69.08
2022-08-17T04:23:17.029Z,68.27
2022-08-17T04:25:48.285Z,69.07
2022-08-17T04:28:16.568Z,69.13
2022-08-17T04:30:45.139Z,69.78
2022-08-17T04:33:21.034Z,69.68
2022-08-17T04:35:50.357Z,69.87
2022-08-17T04:38:20.781Z,69.72
2022-08-17T04:41:07.379Z,68.45
2022-08-17T04:43:35.014Z,70.21
2022-08-17T04:46:04.803Z,70.60
2022-08-17T04:48:41.753Z,70.88
2022-08-17T04:51:16.222Z,71.44
2022-08-17T04:53:45.315Z,70.53
2022-08-17T04:56:20.577Z,71.12
2022-08-17T04:58:50.284Z,69.88
2022-08-17T05:01:23.381Z,70.29
2022-08-17T05:03:56.385Z,70.74
2022-08-17T05:06:23.402Z,72.44
2022-08-17T05:08:49.962Z,72.14
2022-08-17T05:11:16.842Z,71.32
2022-08-17T05:13:43.573Z,71.02
2022-08-17T05:16:10.453Z,72.76
2022-08-17T05:18:39.918Z,72.68
2022-08-17T05:21:07.335Z,71.19
2022-08-17T05:23:43.060Z,71.56
2022-08-17T05:26:26.190Z,72.06
2022-08-17T05:29:02.464Z,73.11
2022-08-17T05:31:30.716Z,72.28
2022-08-17T05:33:57.536Z,72.56
2022-08-17T05:36:41.902Z,72.53
2022-08-17T05:39:15.805Z,72.55
2022-08-17T05:41:43.353Z,71.84
2022-08-17T05:44:10.733Z,71.76
2022-08-17T05:46:41.778Z,73.30
2022-08-17T05:49:09.557Z,72.89
2022-08-17T05:52:03.412Z,70.73
2022-08-17T05:54:53.880Z,72.21
2022-08-17T05:57:47.575Z,73.39
2022-08-17T06:00:30.267Z,72.88
2022-08-17T06:03:07.422Z,73.20
2022-08-17T06:05:59.798Z,71.12
2022-08-17T06:08:41.184Z,75.30
2022-08-17T06:11:13.641Z,72.52
2022-08-17T06:13:49.389Z,74.39
2022-08-17T06:16:33.466Z,74.71
2022-08-17T06:19:12.057Z,73.03
2022-08-17T06:21:43.098Z,74.64
2022-08-17T06:24:24.870Z,72.99
2022-08-17T06:26:53.095Z,73.83
2022-08-17T06:29:47.471Z,73.00
2022-08-17T06:32:14.633Z,73.37
2022-08-17T06:34:43.888Z,71.87
2022-08-17T06:37:28.725Z,71.22
2022-08-17T06:40:15.911Z,71.82
2022-08-17T06:43:14.739Z,69.08
2022-08-17T06:45:54.898Z,71.12
2022-08-17T06:48:33.111Z,68.62
2022-08-17T06:51:15.134Z,68.73
2022-08-17T06:53:49.992Z,68.70
2022-08-17T06:56:54.543Z,69.59
2022-08-17T06:59:30.458Z,69.43
2022-08-17T07:02:52.756Z,66.17
2022-08-17T07:05:32.660Z,68.83
2022-08-17T07:08:18.580Z,68.24
2022-08-17T07:10:50.831Z,69.08
2022-08-17T07:13:51.146Z,68.91
2022-08-17T07:16:35.145Z,69.06
2022-08-17T07:19:01.878Z,70.63
2022-08-17T07:21:31.685Z,69.48
2022-08-17T07:24:33.282Z,68.55
2022-08-17T07:27:20.683Z,69.93
2022-08-17T07:29:54.880Z,71.33
2022-08-17T07:32:26.457Z,72.04
2022-08-17T07:35:15.165Z,71.85
2022-08-17T07:37:46.043Z,70.98
2022-08-17T07:40:18.825Z,71.31
2022-08-17T07:43:02.281Z,71.05
2022-08-17T07:46:04.511Z,71.10
2022-08-17T07:48:36.066Z,70.65
2022-08-17T07:51:19.842Z,68.73
2022-08-17T07:53:46.729Z,70.01
2022-08-17T07:56:38.207Z,69.26
2022-08-17T07:59:23.757Z,68.91
2022-08-17T08:01:57.572Z,69.47
2022-08-17T08:04:59.014Z,69.05
2022-08-17T08:07:57.185Z,68.85
2022-08-17T08:10:45.402Z,67.05
2022-08-17T08:13:24.394Z,69.11
2022-08-17T08:15:54.770Z,68.49
2022-08-17T08:18:54.532Z,66.50
2022-08-17T08:21:38.974Z,68.19
2022-08-17T08:24:20.236Z,68.57
2022-08-17T08:27:18.112Z,67.97
2022-08-17T08:29:57.782Z,67.49
2022-08-17T08:32:48.628Z,67.59
2022-08-17T08:35:34.377Z,68.14
2022-08-17T08:38:07.626Z,68.12
2022-08-17T08:41:07.857Z,67.39
2022-08-17T08:44:06.461Z,68.25
2022-08-17T08:47:01.018Z,68.61
2022-08-17T08:50:04.791Z,68.30
2022-08-17T08:53:03.679Z,67.81
2022-08-17T08:55:51.907Z,67.33
2022-08-17T08:58:31.428Z,67.46
2022-08-17T09:01:27.658Z,66.82
2022-08-17T09:05:09.974Z,67.00
2022-08-17T09:07:38.981Z,66.85
2022-08-17T09:10:21.278Z,67.32
2022-08-17T09:12:51.313Z,67.93
2022-08-17T09:15:26.855Z,67.85
2022-08-17T09:19:00.613Z,68.79
2022-08-17T09:20:58.401Z,69.34
2022-08-17T09:23:42.107Z,71.54
2022-08-17T09:26:22.077Z,71.79
2022-08-17T09:29:00.217Z,74.67
2022-08-17T09:31:47.012Z,75.02
2022-08-17T09:34:20.225Z,74.46
2022-08-17T09:37:07.874Z,75.15
2022-08-17T09:39:43.506Z,73.51
2022-08-17T09:42:29.926Z,73.66
2022-08-17T09:45:28.962Z,74.18
2022-08-17T09:48:06.097Z,73.34
2022-08-17T09:51:03.527Z,73.39
2022-08-17T09:53:32.255Z,72.57
2022-08-17T09:56:31.242Z,70.63
2022-08-17T09:59:08.795Z,69.04
2022-08-17T10:01:39.882Z,69.44
2022-08-17T10:04:44.395Z,68.25
2022-08-17T10:07:17.804Z,70.00
2022-08-17T10:09:56.164Z,67.64
2022-08-17T10:12:31.040Z,68.38
2022-08-17T10:14:58.697Z,68.21
2022-08-17T10:18:31.833Z,68.08
2022-08-17T10:21:28.312Z,65.10
2022-08-17T10:25:21.174Z,64.56
2022-08-17T10:27:45.063Z,64.17
2022-08-17T10:30:17.206Z,63.53
2022-08-17T10:32:55.202Z,64.39
2022-08-17T10:35:34.349Z,62.62
2022-08-17T10:38:26.165Z,63.57
2022-08-17T10:41:20.559Z,64.59
2022-08-17T10:44:36.955Z,63.04
2022-08-17T10:47:15.058Z,62.85
2022-08-17T10:49:50.441Z,63.70
2022-08-17T10:52:20.030Z,64.59
2022-08-17T10:54:50.478Z,64.04
2022-08-17T10:57:31.798Z,65.54
2022-08-17T11:00:06.967Z,63.62
2022-08-17T11:02:50.162Z,63.88
2022-08-17T11:05:29.464Z,64.69
2022-08-17T11:08:17.383Z,64.16
2022-08-17T11:10:58.829Z,65.31
2022-08-17T11:13:44.944Z,68.05
2022-08-17T11:16:20.092Z,69.72
2022-08-17T11:19:12.432Z,71.66
2022-08-17T11:21:45.126Z,70.66
2022-08-17T11:24:16.745Z,70.92
2022-08-17T11:27:17.506Z,70.34
2022-08-17T11:30:02.114Z,71.69
2022-08-17T11:32:47.794Z,72.24
2022-08-17T11:35:30.340Z,71.15
2022-08-17T11:38:15.885Z,71.15
2022-08-17T11:41:18.443Z,73.73
2022-08-17T11:44:02.186Z,72.40
2022-08-17T11:47:18.597Z,72.96
2022-08-17T11:50:39.883Z,73.29
2022-08-17T11:53:07.055Z,76.40
2022-08-17T11:55:39.540Z,74.70
2022-08-17T11:58:37.555Z,75.81
2022-08-17T12:01:12.364Z,75.56
2022-08-17T12:03:55.346Z,74.48
2022-08-17T12:06:45.267Z,72.64
2022-08-17T12:09:25.544Z,74.54
2022-08-17T12:12:13.897Z,74.69
2022-08-17T12:17:55.960Z,76.17
2022-08-17T12:20:41.636Z,76.02
2022-08-17T12:23:18.843Z,76.09
2022-08-17T12:26:13.597Z,76.29
2022-08-17T12:28:45.926Z,75.73
2022-08-17T12:31:21.964Z,73.16
2022-08-17T12:33:51.701Z,74.28
2022-08-17T12:36:22.846Z,74.42
2022-08-17T12:38:59.525Z,73.70
2022-08-17T12:41:47.192Z,74.07
2022-08-17T12:44:18.280Z,74.80
2022-08-17T12:46:46.989Z,74.05
2022-08-17T12:49:16.957Z,74.49
2022-08-17T12:51:46.194Z,75.85
2022-08-17T12:54:32.089Z,75.00
2022-08-17T12:57:05.587Z,75.76
2022-08-17T12:59:33.260Z,75.54
2022-08-17T13:02:00.814Z,76.17
2022-08-17T13:04:29.525Z,77.08
2022-08-17T13:07:08.022Z,76.52
2022-08-17T13:09:36.108Z,76.87
2022-08-17T13:12:11.018Z,76.94
2022-08-17T13:14:38.362Z,76.76
2022-08-17T13:17:09.849Z,76.04
2022-08-17T13:19:48.421Z,77.61
2022-08-17T13:22:14.963Z,76.81
2022-08-17T13:24:53.201Z,79.03
2022-08-17T13:27:22.345Z,78.45
2022-08-17T13:29:53.864Z,78.73
2022-08-17T13:32:31.086Z,79.91
2022-08-17T13:35:15.249Z,78.35
2022-08-17T13:38:01.264Z,77.84
2022-08-17T13:40:42.080Z,78.70
2022-08-17T13:43:11.246Z,78.61
2022-08-17T13:45:50.781Z,78.77
2022-08-17T13:48:29.553Z,78.01
2022-08-17T13:50:59.647Z,78.66
2022-08-17T13:53:36.035Z,78.56
2022-08-17T13:56:37.353Z,78.64
2022-08-17T13:59:04.824Z,79.09
2022-08-17T14:01:35.995Z,79.17
2022-08-17T14:04:15.410Z,78.68
2022-08-17T14:06:59.288Z,78.58
2022-08-17T14:09:38.615Z,77.59
2022-08-17T14:12:10.653Z,78.43
2022-08-17T14:14:37.855Z,79.13
2022-08-17T14:17:05.113Z,78.89
2022-08-17T14:19:34.470Z,76.82
2022-08-17T14:22:01.229Z,76.52
2022-08-17T14:24:34.298Z,76.61
2022-08-17T14:27:03.398Z,78.66
2022-08-17T14:29:32.485Z,78.95
2022-08-17T14:32:04.500Z,78.44
2022-08-17T14:34:31.214Z,77.99
2022-08-17T14:36:57.817Z,78.82
2022-08-17T14:39:24.449Z,77.67
2022-08-17T14:41:50.986Z,78.66
2022-08-17T14:44:17.708Z,77.25
2022-08-17T14:46:44.980Z,77.79
2022-08-17T14:49:13.027Z,79.15
2022-08-17T14:51:43.974Z,78.95
2022-08-17T14:54:11.844Z,78.73
2022-08-17T14:57:22.749Z,78.90
2022-08-17T14:59:46.010Z,79.14
2022-08-17T15:02:13.269Z,79.18
2022-08-17T15:04:45.359Z,78.33
2022-08-17T15:07:12.761Z,80.20
2022-08-17T15:09:39.442Z,78.29
2022-08-17T15:12:09.046Z,78.31
2022-08-17T15:14:36.343Z,80.09
2022-08-17T15:17:03.806Z,77.88
2022-08-17T15:19:30.360Z,79.12
2022-08-17T15:21:57.532Z,77.71
2022-08-17T15:24:24.087Z,78.39
2022-08-17T15:26:51.457Z,77.78
2022-08-17T15:29:18.029Z,77.25
2022-08-17T15:31:44.645Z,78.56
2022-08-17T15:34:11.236Z,79.77
2022-08-17T15:36:38.050Z,78.60
2022-08-17T15:39:08.067Z,77.44
2022-08-17T15:41:34.621Z,77.87
2022-08-17T15:44:01.254Z,77.90
2022-08-17T15:46:28.325Z,78.86
2022-08-17T15:48:58.918Z,77.26
2022-08-17T15:51:30.506Z,76.34
2022-08-17T15:54:04.427Z,78.69
2022-08-17T15:56:44.250Z,77.56
2022-08-17T15:59:10.848Z,78.21
2022-08-17T16:03:01.430Z,76.80
2022-08-17T16:04:30.507Z,77.94
2022-08-17T16:06:57.931Z,77.23
2022-08-17T16:09:24.633Z,78.91
2022-08-17T16:11:52.801Z,76.10
2022-08-17T16:14:22.520Z,78.25
2022-08-17T16:16:50.638Z,77.82
2022-08-17T16:19:17.268Z,75.92
2022-08-17T16:21:44.137Z,78.10
2022-08-17T16:24:13.080Z,76.56
2022-08-17T16:26:40.110Z,79.32
2022-08-17T16:29:07.669Z,79.10
2022-08-17T16:31:36.027Z,76.95
2022-08-17T16:34:17.267Z,78.12
2022-08-17T16:36:53.560Z,76.82
2022-08-17T16:39:22.856Z,77.69
2022-08-17T16:41:50.309Z,78.68
2022-08-17T16:44:21.395Z,77.58
2022-08-17T16:46:48.973Z,77.17
2022-08-17T16:49:35.315Z,76.93
2022-08-17T16:52:06.830Z,76.10
2022-08-17T16:54:35.256Z,76.48
2022-08-17T16:57:03.986Z,77.29
2022-08-17T16:59:40.868Z,76.96
2022-08-17T17:02:11.209Z,78.05
2022-08-17T17:04:45.938Z,77.56
2022-08-17T17:07:15.311Z,77.02
2022-08-17T17:09:43.890Z,77.31
2022-08-17T17:12:18.301Z,76.75
2022-08-17T17:14:47.676Z,75.52
2022-08-17T17:17:30.323Z,76.44
2022-08-17T17:20:15.101Z,76.31
2022-08-17T17:23:05.446Z,77.13
2022-08-17T17:25:52.586Z,72.53
2022-08-17T17:28:56.214Z,75.36
2022-08-17T17:31:31.475Z,76.39
2022-08-17T17:34:04.451Z,76.96
2022-08-17T17:36:40.667Z,78.85
2022-08-17T17:39:14.140Z,76.47
2022-08-17T17:41:43.572Z,77.97
2022-08-17T17:44:18.000Z,75.04
2022-08-17T17:46:53.193Z,75.47
2022-08-17T17:49:20.303Z,75.54
2022-08-17T17:52:11.150Z,74.66
2022-08-17T17:54:47.927Z,77.78
2022-08-17T17:57:29.623Z,77.44
2022-08-17T18:00:14.775Z,77.17
2022-08-17T18:02:47.379Z,79.58
2022-08-17T18:05:37.250Z,77.96
2022-08-17T18:08:34.402Z,78.13
2022-08-17T18:11:24.048Z,78.82
2022-08-17T18:13:59.884Z,78.07
2022-08-17T18:16:32.059Z,78.20
2022-08-17T18:18:59.181Z,78.27
2022-08-17T18:21:40.158Z,79.49
2022-08-17T18:24:08.632Z,78.26
2022-08-17T18:26:50.149Z,77.59
2022-08-17T18:29:30.414Z,77.23
2022-08-17T18:32:18.529Z,77.28
2022-08-17T18:34:48.686Z,78.09
2022-08-17T18:37:33.121Z,76.54
2022-08-17T18:40:17.155Z,77.64
2022-08-17T18:43:05.498Z,77.80
2022-08-17T18:45:39.481Z,78.14
2022-08-17T18:48:19.310Z,77.06
2022-08-17T18:50:46.043Z,79.04
2022-08-17T18:53:34.040Z,77.40
2022-08-17T18:56:31.726Z,79.11
2022-08-17T18:59:41.567Z,77.90
2022-08-17T19:02:32.440Z,77.70
2022-08-17T19:05:10.952Z,79.79
2022-08-17T19:07:50.115Z,79.76
2022-08-17T19:10:28.892Z,80.08
2022-08-17T19:13:12.637Z,78.39
2022-08-17T19:16:12.300Z,77.98
2022-08-17T19:18:44.006Z,78.96
2022-08-17T19:21:20.679Z,78.60
2022-08-17T19:23:53.750Z,79.53
2022-08-17T19:26:54.709Z,79.35
2022-08-17T19:32:22.122Z,81.83
2022-08-17T19:34:49.318Z,80.29
2022-08-17T19:37:50.567Z,79.65
2022-08-17T19:40:53.759Z,81.48
2022-08-17T19:43:51.422Z,81.43
2022-08-17T19:46:48.663Z,81.10
2022-08-17T19:49:40.819Z,80.54
2022-08-17T19:52:29.132Z,80.18
2022-08-17T19:55:37.644Z,81.91
2022-08-17T19:58:21.680Z,80.87
2022-08-17T20:00:52.135Z,80.37
2022-08-17T20:03:31.436Z,81.63
2022-08-17T20:06:12.654Z,80.09
2022-08-17T20:08:53.994Z,79.57
2022-08-17T20:11:28.425Z,82.03
2022-08-17T20:14:12.032Z,80.47
2022-08-17T20:16:38.903Z,82.39
2022-08-17T20:19:27.664Z,80.90
2022-08-17T20:22:18.412Z,83.31
2022-08-17T20:24:54.221Z,81.81
2022-08-17T20:27:31.305Z,81.16
2022-08-17T20:30:01.604Z,81.43
2022-08-17T20:32:31.460Z,83.05
2022-08-17T20:35:25.920Z,82.80
2022-08-17T20:37:59.233Z,82.34
2022-08-17T20:40:32.797Z,82.70
2022-08-17T20:43:34.363Z,82.26
2022-08-17T20:46:18.801Z,81.81
2022-08-17T20:48:50.040Z,80.30
2022-08-17T20:51:22.612Z,81.94
2022-08-17T20:53:55.141Z,83.28
2022-08-17T20:56:43.548Z,82.91
2022-08-17T20:59:31.654Z,84.01
2022-08-17T21:02:18.590Z,84.04
2022-08-17T21:04:52.709Z,83.33
2022-08-17T21:07:53.100Z,82.00
2022-08-17T21:10:25.935Z,81.78
2022-08-17T21:13:21.788Z,81.61
2022-08-17T21:16:41.356Z,82.38
2022-08-17T21:19:25.947Z,83.05
2022-08-17T21:22:28.620Z,81.23
2022-08-17T21:25:16.185Z,83.55
2022-08-17T21:28:10.149Z,82.23
2022-08-17T21:30:39.125Z,81.67
2022-08-17T21:33:16.675Z,82.64
2022-08-17T21:35:49.309Z,84.47
2022-08-17T21:38:19.519Z,83.14
2022-08-17T21:40:50.061Z,83.63
2022-08-17T21:43:22.941Z,83.67
2022-08-17T21:46:02.204Z,84.33
2022-08-17T21:48:32.212Z,83.29
2022-08-17T21:51:06.657Z,82.31
2022-08-17T21:54:06.171Z,82.36
2022-08-17T21:56:38.705Z,83.52
2022-08-17T21:59:16.114Z,84.00
2022-08-17T22:01:43.247Z,83.41
2022-08-17T22:04:11.293Z,83.51
2022-08-17T22:06:55.841Z,83.42
2022-08-17T22:09:34.568Z,83.19
2022-08-17T22:12:04.750Z,81.76
2022-08-17T22:14:52.466Z,83.40
2022-08-17T22:17:27.119Z,83.29
2022-08-17T22:19:58.390Z,84.37
2022-08-17T22:22:27.704Z,84.06
2022-08-17T22:25:02.411Z,83.70
2022-08-17T22:27:59.402Z,84.08
2022-08-17T22:30:34.470Z,83.14
2022-08-17T22:33:33.015Z,81.96
2022-08-17T22:36:13.161Z,82.59
2022-08-17T22:38:41.488Z,81.65
2022-08-17T22:41:41.112Z,81.66
2022-08-17T22:44:31.884Z,81.20
2022-08-17T22:47:01.355Z,81.99
2022-08-17T22:49:53.359Z,82.16
2022-08-17T22:52:57.377Z,81.84
2022-08-17T22:55:43.624Z,82.43
2022-08-17T22:58:40.775Z,81.72
2022-08-17T23:01:32.588Z,82.90
2022-08-17T23:04:03.058Z,82.49
2022-08-17T23:06:33.884Z,80.76
2022-08-17T23:09:03.579Z,82.41
2022-08-17T23:11:49.290Z,82.39
2022-08-17T23:14:19.244Z,80.80
2022-08-17T23:16:46.940Z,81.64
2022-08-17T23:19:16.049Z,81.61
2022-08-17T23:21:44.869Z,81.98
2022-08-17T23:24:17.093Z,81.12
2022-08-17T23:26:43.633Z,81.46
2022-08-17T23:29:10.192Z,80.44
2022-08-17T23:31:38.821Z,81.44
2022-08-17T23:34:15.093Z,80.38
2022-08-17T23:36:42.220Z,80.14
2022-08-17T23:39:08.743Z,80.82
2022-08-17T23:41:39.810Z,80.07
2022-08-17T23:44:07.176Z,81.05
2022-08-17T23:46:34.528Z,81.37
2022-08-17T23:49:01.239Z,80.18
2022-08-17T23:51:31.834Z,81.14
2022-08-17T23:54:08.207Z,80.37
2022-08-17T23:56:43.824Z,80.72
2022-08-17T23:59:11.283Z,81.14
